createdAt,value
2019-06-20T00:00:00.906Z,0.00
2019-06-20T00:01:01.220Z,0.00
2019-06-20T00:02:01.660Z,0.00
2019-06-20T00:03:02.080Z,0.00
2019-06-20T00:04:02.479Z,0.00
2019-06-20T00:05:02.917Z,0.00
2019-06-20T00:06:03.299Z,0.00
2019-06-20T00:07:03.808Z,0.00
2019-06-20T00:08:04.153Z,0.00
2019-06-20T00:09:04.560Z,0.00
2019-06-20T00:10:04.996Z,0.00
2019-06-20T00:11:05.373Z,0.00
2019-06-20T00:12:05.835Z,0.00
2019-06-20T00:13:06.274Z,0.00
2019-06-20T00:14:06.668Z,0.00
2019-06-20T00:15:07.186Z,0.00
2019-06-20T00:16:07.488Z,0.00
2019-06-20T00:17:07.924Z,0.00
2019-06-20T00:18:08.347Z,0.00
2019-06-20T00:19:08.745Z,0.00
2019-06-20T00:20:09.180Z,0.00
2019-06-20T00:21:09.584Z,0.00
2019-06-20T00:22:10.046Z,0.00
2019-06-20T00:23:10.452Z,0.00
2019-06-20T00:24:10.861Z,0.00
2019-06-20T00:25:11.274Z,0.00
2019-06-20T00:26:11.665Z,0.00
2019-06-20T00:27:12.125Z,0.00
2019-06-20T00:28:12.514Z,0.00
2019-06-20T00:29:12.932Z,0.00
2019-06-20T00:30:13.389Z,0.00
2019-06-20T00:31:13.813Z,0.00
2019-06-20T00:32:14.353Z,0.00
2019-06-20T00:33:14.624Z,0.00
2019-06-20T00:34:15.043Z,0.00
2019-06-20T00:35:15.481Z,0.00
2019-06-20T00:36:15.880Z,0.00
2019-06-20T00:37:16.319Z,0.00
2019-06-20T00:38:16.737Z,0.00
2019-06-20T00:39:17.117Z,0.00
2019-06-20T00:40:17.676Z,0.00
2019-06-20T00:41:17.971Z,0.00
2019-06-20T00:42:18.427Z,0.00
2019-06-20T00:43:18.835Z,0.00
2019-06-20T00:44:19.215Z,0.00
2019-06-20T00:45:19.648Z,0.00
2019-06-20T00:46:20.068Z,0.00
2019-06-20T00:47:20.512Z,0.00
2019-06-20T00:48:20.989Z,0.00
2019-06-20T00:49:21.293Z,0.00
2019-06-20T00:50:21.734Z,0.00
2019-06-20T00:51:22.184Z,0.00
2019-06-20T00:52:22.619Z,0.00
2019-06-20T00:53:23.038Z,0.00
2019-06-20T00:54:23.440Z,0.00
2019-06-20T00:55:23.866Z,0.00
2019-06-20T00:56:24.307Z,0.00
2019-06-20T00:57:24.739Z,0.00
2019-06-20T00:58:25.139Z,0.00
2019-06-20T00:59:25.544Z,0.00
2019-06-20T01:00:25.950Z,0.00
2019-06-20T01:01:26.366Z,0.00
2019-06-20T01:02:26.783Z,0.00
2019-06-20T01:03:27.230Z,0.00
2019-06-20T01:04:27.676Z,0.00
2019-06-20T01:05:28.104Z,0.00
2019-06-20T01:06:28.467Z,0.00
2019-06-20T01:07:28.885Z,0.00
2019-06-20T01:08:29.544Z,0.00
2019-06-20T01:09:29.728Z,0.00
2019-06-20T01:10:30.132Z,0.00
2019-06-20T01:11:30.566Z,0.00
2019-06-20T01:12:31.002Z,0.00
2019-06-20T01:13:33.750Z,0.00
2019-06-20T01:14:31.809Z,0.00
2019-06-20T01:15:32.260Z,0.00
2019-06-20T01:16:32.667Z,0.00
2019-06-20T01:17:33.066Z,0.00
2019-06-20T01:18:33.482Z,0.00
2019-06-20T01:19:33.913Z,0.00
2019-06-20T01:20:34.329Z,0.00
2019-06-20T01:21:34.900Z,0.00
2019-06-20T01:22:35.173Z,0.00
2019-06-20T01:23:35.595Z,0.00
2019-06-20T01:24:36.011Z,0.00
2019-06-20T01:25:36.431Z,0.00
2019-06-20T01:26:36.867Z,0.00
2019-06-20T01:27:37.286Z,0.00
2019-06-20T01:28:37.718Z,0.00
2019-06-20T01:29:38.160Z,0.00
2019-06-20T01:30:38.514Z,0.00
2019-06-20T01:31:38.958Z,0.00
2019-06-20T01:32:39.389Z,0.00
2019-06-20T01:33:39.793Z,0.00
2019-06-20T01:34:40.175Z,0.00
2019-06-20T01:35:40.599Z,0.00
2019-06-20T01:36:41.046Z,0.00
2019-06-20T01:37:41.532Z,0.00
2019-06-20T01:38:41.872Z,0.00
2019-06-20T01:39:42.273Z,0.00
2019-06-20T01:40:42.675Z,0.00
2019-06-20T01:41:43.120Z,0.00
2019-06-20T01:42:43.559Z,0.00
2019-06-20T01:43:50.424Z,0.00
2019-06-20T01:44:45.395Z,0.00
2019-06-20T01:45:44.832Z,0.00
2019-06-20T01:46:45.277Z,0.00
2019-06-20T01:47:45.659Z,0.00
2019-06-20T01:48:46.058Z,0.00
2019-06-20T01:49:46.477Z,0.00
2019-06-20T01:50:46.888Z,0.00
2019-06-20T01:51:47.331Z,0.00
2019-06-20T01:52:47.743Z,0.00
2019-06-20T01:53:48.178Z,0.00
2019-06-20T01:54:48.722Z,0.00
2019-06-20T01:55:49.035Z,0.00
2019-06-20T01:56:49.450Z,0.00
2019-06-20T01:57:49.883Z,4.00
2019-06-20T01:58:50.306Z,4.00
2019-06-20T01:59:50.739Z,4.00
2019-06-20T02:00:51.157Z,4.00
2019-06-20T02:01:51.589Z,0.00
2019-06-20T02:02:52.141Z,4.00
2019-06-20T02:03:52.480Z,4.00
2019-06-20T02:04:52.854Z,4.00
2019-06-20T02:05:53.262Z,4.00
2019-06-20T02:06:53.690Z,8.00
2019-06-20T02:07:54.099Z,4.00
2019-06-20T02:08:54.500Z,8.00
2019-06-20T02:09:54.950Z,4.00
2019-06-20T02:12:27.669Z,8.00
2019-06-20T02:13:11.010Z,8.00
2019-06-20T02:14:11.411Z,12.00
2019-06-20T02:15:11.842Z,12.00
2019-06-20T02:16:12.245Z,16.00
2019-06-20T02:17:12.652Z,20.00
2019-06-20T02:18:13.081Z,20.00
2019-06-20T02:19:13.514Z,24.00
2019-06-20T02:20:14.036Z,24.00
2019-06-20T02:21:14.329Z,28.00
2019-06-20T02:22:14.751Z,32.00
2019-06-20T02:23:15.188Z,36.00
2019-06-20T02:24:15.605Z,36.00
2019-06-20T02:25:16.042Z,40.00
2019-06-20T02:26:16.450Z,44.00
2019-06-20T02:27:16.856Z,52.00
2019-06-20T02:28:17.379Z,52.00
2019-06-20T02:29:17.694Z,60.00
2019-06-20T02:30:18.125Z,64.00
2019-06-20T02:31:18.594Z,72.00
2019-06-20T02:32:18.931Z,76.00
2019-06-20T02:33:19.397Z,88.00
2019-06-20T02:34:19.781Z,100.00
2019-06-20T02:35:20.208Z,112.00
2019-06-20T02:36:20.653Z,120.00
2019-06-20T02:37:21.069Z,132.00
2019-06-20T02:38:21.498Z,144.00
2019-06-20T02:39:21.884Z,152.00
2019-06-20T02:40:22.300Z,168.00
2019-06-20T02:41:22.716Z,180.00
2019-06-20T02:42:23.135Z,192.00
2019-06-20T02:43:23.586Z,208.00
2019-06-20T02:44:29.837Z,220.00
2019-06-20T02:45:25.541Z,232.00
2019-06-20T02:46:24.808Z,244.00
2019-06-20T02:47:25.225Z,260.00
2019-06-20T02:48:25.916Z,276.00
2019-06-20T02:49:26.060Z,292.00
2019-06-20T02:50:26.502Z,308.00
2019-06-20T02:51:26.878Z,324.00
2019-06-20T02:52:27.321Z,344.00
2019-06-20T02:53:27.902Z,360.00
2019-06-20T02:54:28.162Z,384.00
2019-06-20T02:55:28.599Z,400.00
2019-06-20T02:56:28.982Z,424.00
2019-06-20T02:57:29.422Z,448.00
2019-06-20T02:58:29.885Z,472.00
2019-06-20T02:59:30.283Z,500.00
2019-06-20T03:00:30.707Z,520.00
2019-06-20T03:01:31.141Z,548.00
2019-06-20T03:02:31.496Z,572.00
2019-06-20T03:03:31.967Z,600.00
2019-06-20T03:04:32.355Z,624.00
2019-06-20T03:05:32.793Z,660.00
2019-06-20T03:06:33.190Z,692.00
2019-06-20T03:07:33.604Z,728.00
2019-06-20T03:08:34.046Z,768.00
2019-06-20T03:09:34.463Z,800.00
2019-06-20T03:10:34.914Z,828.00
2019-06-20T03:11:35.313Z,868.00
2019-06-20T03:12:35.735Z,896.00
2019-06-20T03:13:36.188Z,932.00
2019-06-20T03:14:44.941Z,964.00
2019-06-20T03:15:38.011Z,996.00
2019-06-20T03:16:37.423Z,1028.00
2019-06-20T03:17:37.872Z,1068.00
2019-06-20T03:18:38.397Z,1096.00
2019-06-20T03:19:38.667Z,1136.00
2019-06-20T03:20:39.114Z,1196.00
2019-06-20T03:21:39.514Z,1260.00
2019-06-20T03:22:39.935Z,1288.00
2019-06-20T03:23:40.388Z,1248.00
2019-06-20T03:24:40.770Z,1172.00
2019-06-20T03:25:41.174Z,1120.00
2019-06-20T03:26:41.718Z,1120.00
2019-06-20T03:27:42.060Z,1168.00
2019-06-20T03:28:42.519Z,1264.00
2019-06-20T03:29:42.901Z,1340.00
2019-06-20T03:30:43.314Z,1360.00
2019-06-20T03:31:43.748Z,1352.00
2019-06-20T03:32:44.166Z,1328.00
2019-06-20T03:33:44.617Z,1292.00
2019-06-20T03:34:45.069Z,1276.00
2019-06-20T03:35:45.380Z,1268.00
2019-06-20T03:36:45.842Z,1272.00
2019-06-20T03:37:48.132Z,1296.00
2019-06-20T03:38:46.711Z,1332.00
2019-06-20T03:39:47.095Z,1376.00
2019-06-20T03:40:47.540Z,1420.00
2019-06-20T03:41:47.953Z,1460.00
2019-06-20T03:42:48.384Z,1504.00
2019-06-20T03:43:48.784Z,1544.00
2019-06-20T03:45:01.277Z,1592.00
2019-06-20T03:45:50.652Z,1640.00
2019-06-20T03:46:50.036Z,1692.00
2019-06-20T03:47:50.424Z,1740.00
2019-06-20T03:48:50.935Z,1800.00
2019-06-20T03:49:51.283Z,1872.00
2019-06-20T03:50:51.724Z,1948.00
2019-06-20T03:51:52.241Z,2028.00
2019-06-20T03:52:52.523Z,2096.00
2019-06-20T03:53:52.974Z,2160.00
2019-06-20T03:54:53.374Z,2224.00
2019-06-20T03:55:53.795Z,2292.00
2019-06-20T03:56:54.231Z,2352.00
2019-06-20T03:57:54.632Z,2480.00
2019-06-20T03:58:55.100Z,2636.00
2019-06-20T03:59:55.598Z,2728.00
2019-06-20T04:00:55.879Z,2796.00
2019-06-20T04:01:56.331Z,2872.00
2019-06-20T04:02:56.718Z,2964.00
2019-06-20T04:03:57.177Z,3028.00
2019-06-20T04:04:57.544Z,3056.00
2019-06-20T04:05:57.997Z,3056.00
2019-06-20T04:06:58.420Z,3052.00
2019-06-20T04:07:58.925Z,3060.00
2019-06-20T04:08:59.264Z,3076.00
2019-06-20T04:09:59.634Z,3112.00
2019-06-20T04:11:00.083Z,3156.00
2019-06-20T04:12:00.492Z,3204.00
2019-06-20T04:13:00.908Z,3256.00
2019-06-20T04:14:01.366Z,3280.00
2019-06-20T04:15:14.965Z,3320.00
2019-06-20T04:16:03.190Z,3332.00
2019-06-20T04:17:02.587Z,3340.00
2019-06-20T04:18:02.994Z,3348.00
2019-06-20T04:19:03.453Z,3360.00
2019-06-20T04:20:03.857Z,3372.00
2019-06-20T04:21:04.257Z,3380.00
2019-06-20T04:22:04.665Z,3388.00
2019-06-20T04:23:05.086Z,3396.00
2019-06-20T04:24:05.588Z,3396.00
2019-06-20T04:25:05.964Z,3416.00
2019-06-20T04:26:06.618Z,3464.00
2019-06-20T04:27:06.817Z,3520.00
2019-06-20T04:28:07.201Z,3560.00
2019-06-20T04:29:07.654Z,3608.00
2019-06-20T04:30:08.213Z,3656.00
2019-06-20T04:31:08.493Z,3700.00
2019-06-20T04:32:08.980Z,3700.00
2019-06-20T04:33:09.415Z,3692.00
2019-06-20T04:34:09.852Z,3692.00
2019-06-20T04:35:10.202Z,3676.00
2019-06-20T04:36:10.606Z,3648.00
2019-06-20T04:37:11.037Z,3640.00
2019-06-20T04:38:11.439Z,3652.00
2019-06-20T04:39:18.677Z,3656.00
2019-06-20T04:40:13.290Z,3660.00
2019-06-20T04:41:12.857Z,3676.00
2019-06-20T04:42:13.159Z,3700.00
2019-06-20T04:43:13.553Z,3748.00
2019-06-20T04:44:14.020Z,3804.00
2019-06-20T04:45:14.439Z,3888.00
2019-06-20T04:46:14.847Z,3984.00
2019-06-20T04:47:15.284Z,4080.00
2019-06-20T04:48:15.682Z,4176.00
2019-06-20T04:49:19.506Z,4252.00
2019-06-20T04:50:16.522Z,4304.00
2019-06-20T04:51:16.934Z,4344.00
2019-06-20T04:52:17.365Z,4396.00
2019-06-20T04:53:17.787Z,4444.00
2019-06-20T04:54:18.210Z,4552.00
2019-06-20T04:55:18.607Z,4716.00
2019-06-20T04:56:19.029Z,5120.00
2019-06-20T04:57:19.532Z,5796.00
2019-06-20T04:58:19.862Z,6260.00
2019-06-20T04:59:20.305Z,6384.00
2019-06-20T05:00:20.720Z,6228.00
2019-06-20T05:01:21.110Z,6080.00
2019-06-20T05:02:21.631Z,6220.00
2019-06-20T05:03:21.969Z,6376.00
2019-06-20T05:04:22.408Z,6496.00
2019-06-20T05:05:22.887Z,6480.00
2019-06-20T05:06:23.260Z,6304.00
2019-06-20T05:07:23.657Z,6044.00
2019-06-20T05:08:24.064Z,6092.00
2019-06-20T05:09:24.500Z,6320.00
2019-06-20T05:10:24.914Z,6608.00
2019-06-20T05:11:25.322Z,6888.00
2019-06-20T05:12:25.769Z,7168.00
2019-06-20T05:13:26.172Z,7460.00
2019-06-20T05:14:26.738Z,7816.00
2019-06-20T05:15:27.025Z,8224.00
2019-06-20T05:16:27.424Z,8604.00
2019-06-20T05:17:27.846Z,8908.00
2019-06-20T05:18:28.260Z,9264.00
2019-06-20T05:19:28.717Z,9480.00
2019-06-20T05:20:29.124Z,9220.00
2019-06-20T05:21:29.516Z,8864.00
2019-06-20T05:22:30.069Z,8596.00
2019-06-20T05:23:30.345Z,8404.00
2019-06-20T05:24:30.789Z,8248.00
2019-06-20T05:25:31.215Z,8324.00
2019-06-20T05:26:31.616Z,8464.00
2019-06-20T05:27:32.049Z,8616.00
2019-06-20T05:28:32.434Z,8684.00
2019-06-20T05:29:32.890Z,8784.00
2019-06-20T05:30:33.607Z,8796.00
2019-06-20T05:31:33.681Z,8820.00
2019-06-20T05:32:34.120Z,8816.00
2019-06-20T05:33:34.501Z,8904.00
2019-06-20T05:34:34.961Z,8820.00
2019-06-20T05:35:35.480Z,8876.00
2019-06-20T05:36:35.791Z,8708.00
2019-06-20T05:37:36.232Z,8688.00
2019-06-20T05:38:36.762Z,8496.00
2019-06-20T05:39:37.101Z,8560.00
2019-06-20T05:40:37.538Z,8816.00
2019-06-20T05:41:37.957Z,9116.00
2019-06-20T05:42:38.368Z,9412.00
2019-06-20T05:43:38.788Z,9640.00
2019-06-20T05:44:39.223Z,9756.00
2019-06-20T05:45:39.666Z,9684.00
2019-06-20T05:46:40.084Z,9540.00
2019-06-20T05:47:40.490Z,9336.00
2019-06-20T05:48:40.896Z,9224.00
2019-06-20T05:49:41.465Z,9084.00
2019-06-20T05:50:41.755Z,8928.00
2019-06-20T05:51:42.139Z,8768.00
2019-06-20T05:52:42.578Z,8876.00
2019-06-20T05:53:43.010Z,9348.00
2019-06-20T05:54:43.434Z,9564.00
2019-06-20T05:55:43.945Z,9624.00
2019-06-20T05:56:44.697Z,9316.00
2019-06-20T05:57:44.678Z,8580.00
2019-06-20T05:58:45.982Z,7816.00
2019-06-20T05:59:45.536Z,7504.00
2019-06-20T06:00:45.957Z,7532.00
2019-06-20T06:01:46.977Z,7696.00
2019-06-20T06:02:46.749Z,8028.00
2019-06-20T06:03:47.311Z,8496.00
2019-06-20T06:04:47.626Z,8972.00
2019-06-20T06:05:48.050Z,9216.00
2019-06-20T06:06:48.441Z,9268.00
2019-06-20T06:07:48.856Z,9244.00
2019-06-20T06:08:49.308Z,9060.00
2019-06-20T06:09:49.728Z,8784.00
2019-06-20T06:10:50.149Z,8464.00
2019-06-20T06:11:50.632Z,7992.00
2019-06-20T06:12:50.941Z,7792.00
2019-06-20T06:13:51.385Z,7872.00
2019-06-20T06:14:51.806Z,8156.00
2019-06-20T06:15:52.220Z,8304.00
2019-06-20T06:16:52.627Z,8116.00
2019-06-20T06:17:53.060Z,7652.00
2019-06-20T06:18:53.465Z,7144.00
2019-06-20T06:19:53.981Z,6376.00
2019-06-20T06:20:54.313Z,5652.00
2019-06-20T06:21:54.722Z,5040.00
2019-06-20T06:22:55.140Z,4672.00
2019-06-20T06:23:55.575Z,4392.00
2019-06-20T06:24:55.980Z,4060.00
2019-06-20T06:25:56.409Z,3708.00
2019-06-20T06:26:59.558Z,3408.00
2019-06-20T06:27:57.259Z,3140.00
2019-06-20T06:28:57.697Z,2920.00
2019-06-20T06:29:58.072Z,2720.00
2019-06-20T06:30:58.520Z,2616.00
2019-06-20T06:31:58.902Z,2556.00
2019-06-20T06:32:59.329Z,2524.00
2019-06-20T06:33:59.758Z,2492.00
2019-06-20T06:35:00.170Z,2544.00
2019-06-20T06:36:00.599Z,2588.00
2019-06-20T06:37:01.084Z,2680.00
2019-06-20T06:38:01.419Z,2804.00
2019-06-20T06:39:01.877Z,2844.00
2019-06-20T06:40:02.276Z,2888.00
2019-06-20T06:41:02.677Z,2964.00
2019-06-20T06:42:03.106Z,3116.00
2019-06-20T06:43:03.509Z,3236.00
2019-06-20T06:44:03.939Z,3336.00
2019-06-20T06:45:04.467Z,3424.00
2019-06-20T06:46:04.748Z,3520.00
2019-06-20T06:47:05.178Z,3748.00
2019-06-20T06:48:05.596Z,4180.00
2019-06-20T06:49:06.026Z,4776.00
2019-06-20T06:50:06.508Z,5524.00
2019-06-20T06:51:06.855Z,6332.00
2019-06-20T06:52:07.320Z,6896.00
2019-06-20T06:53:07.767Z,7380.00
2019-06-20T06:54:08.123Z,7828.00
2019-06-20T06:55:08.546Z,8528.00
2019-06-20T06:56:08.946Z,9496.00
2019-06-20T06:57:09.380Z,10220.00
2019-06-20T06:58:09.783Z,10944.00
2019-06-20T06:59:10.245Z,11468.00
2019-06-20T07:00:10.675Z,11180.00
2019-06-20T07:01:11.095Z,10608.00
2019-06-20T07:02:11.471Z,10200.00
2019-06-20T07:03:11.859Z,10308.00
2019-06-20T07:04:12.316Z,11048.00
2019-06-20T07:05:12.769Z,11380.00
2019-06-20T07:06:13.156Z,10960.00
2019-06-20T07:07:13.595Z,10452.00
2019-06-20T07:08:14.006Z,9700.00
2019-06-20T07:09:14.441Z,9964.00
2019-06-20T07:10:14.904Z,11372.00
2019-06-20T07:11:15.248Z,13180.00
2019-06-20T07:12:15.749Z,14732.00
2019-06-20T07:13:16.086Z,15552.00
2019-06-20T07:14:16.536Z,15552.00
2019-06-20T07:15:16.923Z,15540.00
2019-06-20T07:16:17.341Z,15472.00
2019-06-20T07:17:17.804Z,15352.00
2019-06-20T07:18:18.284Z,15348.00
2019-06-20T07:19:18.594Z,15504.00
2019-06-20T07:20:19.017Z,15440.00
2019-06-20T07:21:19.424Z,15420.00
2019-06-20T07:22:19.860Z,15376.00
2019-06-20T07:23:20.260Z,15252.00
2019-06-20T07:24:20.711Z,15004.00
2019-06-20T07:25:21.127Z,14460.00
2019-06-20T07:26:21.615Z,13904.00
2019-06-20T07:27:21.939Z,13452.00
2019-06-20T07:28:22.342Z,12824.00
2019-06-20T07:29:22.778Z,12052.00
2019-06-20T07:30:23.193Z,11400.00
2019-06-20T07:31:23.565Z,10896.00
2019-06-20T07:32:24.041Z,10812.00
2019-06-20T07:33:24.432Z,11192.00
2019-06-20T07:34:24.899Z,11796.00
2019-06-20T07:35:25.271Z,12280.00
2019-06-20T07:36:25.668Z,12972.00
2019-06-20T07:37:26.114Z,13412.00
2019-06-20T07:38:26.530Z,13536.00
2019-06-20T07:39:26.984Z,12716.00
2019-06-20T07:40:27.381Z,11488.00
2019-06-20T07:41:27.780Z,10332.00
2019-06-20T07:42:28.479Z,9032.00
2019-06-20T07:43:28.604Z,7768.00
2019-06-20T07:44:29.060Z,6780.00
2019-06-20T07:45:29.485Z,5956.00
2019-06-20T07:46:29.946Z,5248.00
2019-06-20T07:47:30.332Z,4564.00
2019-06-20T07:48:30.715Z,4016.00
2019-06-20T07:49:31.149Z,3576.00
2019-06-20T07:50:31.611Z,3228.00
2019-06-20T07:51:32.103Z,3000.00
2019-06-20T07:52:32.412Z,2828.00
2019-06-20T07:53:32.799Z,2752.00
2019-06-20T07:54:33.238Z,2692.00
2019-06-20T07:55:33.701Z,2516.00
2019-06-20T07:56:34.100Z,2348.00
2019-06-20T07:57:34.544Z,2280.00
2019-06-20T07:58:34.941Z,2360.00
2019-06-20T07:59:35.444Z,2624.00
2019-06-20T08:00:35.819Z,3120.00
2019-06-20T08:01:36.213Z,3808.00
2019-06-20T08:02:36.652Z,4556.00
2019-06-20T08:03:37.049Z,5364.00
2019-06-20T08:04:37.457Z,6068.00
2019-06-20T08:05:37.956Z,6744.00
2019-06-20T08:06:38.314Z,7100.00
2019-06-20T08:07:38.854Z,7208.00
2019-06-20T08:08:39.142Z,7528.00
2019-06-20T08:09:44.773Z,8228.00
2019-06-20T08:10:41.014Z,8836.00
2019-06-20T08:11:40.412Z,9400.00
2019-06-20T08:12:40.837Z,9668.00
2019-06-20T08:13:41.240Z,9308.00
2019-06-20T08:14:41.704Z,8684.00
2019-06-20T08:15:42.128Z,8000.00
2019-06-20T08:16:42.479Z,7532.00
2019-06-20T08:17:43.045Z,7356.00
2019-06-20T08:18:43.354Z,7344.00
2019-06-20T08:19:43.757Z,7360.00
2019-06-20T08:20:44.201Z,7592.00
2019-06-20T08:21:44.590Z,8020.00
2019-06-20T08:22:45.008Z,8616.00
2019-06-20T08:23:45.456Z,9180.00
2019-06-20T08:24:45.866Z,9868.00
2019-06-20T08:25:46.299Z,10836.00
2019-06-20T08:26:46.682Z,11496.00
2019-06-20T08:27:47.102Z,12172.00
2019-06-20T08:28:47.510Z,12484.00
2019-06-20T08:29:47.956Z,14208.00
2019-06-20T08:30:48.412Z,15424.00
2019-06-20T08:31:48.877Z,15460.00
2019-06-20T08:32:49.329Z,14644.00
2019-06-20T08:33:49.643Z,14244.00
2019-06-20T08:34:50.054Z,14516.00
2019-06-20T08:35:50.508Z,14684.00
2019-06-20T08:36:50.901Z,14528.00
2019-06-20T08:37:51.328Z,15044.00
2019-06-20T08:38:51.702Z,15624.00
2019-06-20T08:39:52.145Z,16704.00
2019-06-20T08:40:52.686Z,16768.00
2019-06-20T08:41:52.972Z,16576.00
2019-06-20T08:42:53.418Z,15516.00
2019-06-20T08:43:53.889Z,12932.00
2019-06-20T08:44:56.215Z,10496.00
2019-06-20T08:45:55.121Z,9216.00
2019-06-20T08:46:56.380Z,8828.00
2019-06-20T08:47:56.560Z,9596.00
2019-06-20T08:48:56.312Z,11148.00
2019-06-20T08:49:56.502Z,11112.00
2019-06-20T08:50:58.225Z,10608.00
2019-06-20T08:51:57.354Z,9960.00
2019-06-20T08:52:57.997Z,9476.00
2019-06-20T08:53:59.200Z,9300.00
2019-06-20T08:54:59.548Z,9168.00
2019-06-20T08:55:59.381Z,9152.00
2019-06-20T08:56:59.324Z,9868.00
2019-06-20T08:58:01.309Z,11164.00
2019-06-20T08:59:00.593Z,12668.00
2019-06-20T09:00:00.684Z,14096.00
2019-06-20T09:08:10.159Z,12964.00
2019-06-20T09:09:04.450Z,13256.00
2019-06-20T09:10:04.741Z,13372.00
2019-06-20T09:11:05.465Z,13768.00
2019-06-20T09:12:05.576Z,14088.00
2019-06-20T09:13:06.016Z,14708.00
2019-06-20T09:14:06.510Z,14656.00
2019-06-20T09:15:06.854Z,14116.00
2019-06-20T09:16:07.305Z,13148.00
2019-06-20T09:17:07.688Z,12116.00
2019-06-20T09:18:08.100Z,11416.00
2019-06-20T09:19:08.552Z,10420.00
2019-06-20T09:20:08.969Z,9124.00
2019-06-20T09:21:09.449Z,7748.00
2019-06-20T09:22:09.942Z,6700.00
2019-06-20T09:23:10.188Z,5896.00
2019-06-20T09:24:10.695Z,5456.00
2019-06-20T09:25:11.048Z,6296.00
2019-06-20T09:26:11.498Z,7304.00
2019-06-20T09:27:11.885Z,7396.00
2019-06-20T09:28:12.303Z,7600.00
2019-06-20T09:29:12.724Z,8684.00
2019-06-20T09:30:13.291Z,9852.00
2019-06-20T09:31:13.585Z,11040.00
2019-06-20T09:32:13.983Z,13428.00
2019-06-20T09:33:14.394Z,14920.00
2019-06-20T09:34:14.819Z,15552.00
2019-06-20T09:35:15.222Z,14960.00
2019-06-20T09:36:15.722Z,14684.00
2019-06-20T09:37:16.085Z,14704.00
2019-06-20T09:38:16.540Z,13904.00
2019-06-20T09:39:16.922Z,13620.00
2019-06-20T09:40:17.310Z,13864.00
2019-06-20T09:41:17.797Z,13352.00
2019-06-20T09:42:18.170Z,12884.00
2019-06-20T09:43:27.172Z,12096.00
2019-06-20T09:44:20.025Z,11312.00
2019-06-20T09:45:19.427Z,11452.00
2019-06-20T09:46:19.959Z,11016.00
2019-06-20T09:47:20.243Z,10368.00
2019-06-20T09:48:20.670Z,10344.00
2019-06-20T09:49:21.109Z,11252.00
2019-06-20T09:50:21.517Z,12564.00
2019-06-20T09:51:21.976Z,13932.00
2019-06-20T09:52:22.345Z,14704.00
2019-06-20T09:53:22.773Z,15144.00
2019-06-20T09:54:23.281Z,13832.00
2019-06-20T09:55:23.672Z,11984.00
2019-06-20T09:56:24.064Z,11272.00
2019-06-20T09:57:24.445Z,11764.00
2019-06-20T09:58:24.873Z,13008.00
2019-06-20T09:59:27.788Z,15052.00
2019-06-20T10:00:25.733Z,16264.00
2019-06-20T10:01:26.175Z,15404.00
2019-06-20T10:02:26.547Z,14336.00
2019-06-20T10:03:27.104Z,13700.00
2019-06-20T10:04:27.423Z,13700.00
2019-06-20T10:05:27.826Z,14096.00
2019-06-20T10:06:28.282Z,15124.00
2019-06-20T10:07:28.644Z,16928.00
2019-06-20T10:08:29.083Z,16768.00
2019-06-20T10:09:29.531Z,17536.00
2019-06-20T10:10:29.938Z,17696.00
2019-06-20T10:11:30.509Z,18112.00
2019-06-20T10:12:30.758Z,18496.00
2019-06-20T10:13:32.566Z,18432.00
2019-06-20T10:14:31.628Z,17824.00
2019-06-20T10:15:32.028Z,18816.00
2019-06-20T10:16:45.020Z,18880.00
2019-06-20T10:17:33.885Z,19168.00
2019-06-20T10:18:33.288Z,19712.00
2019-06-20T10:19:33.802Z,19680.00
2019-06-20T10:20:34.141Z,19392.00
2019-06-20T10:21:34.591Z,18144.00
2019-06-20T10:22:35.008Z,16092.00
2019-06-20T10:23:35.422Z,15324.00
2019-06-20T10:24:35.841Z,15496.00
2019-06-20T10:25:36.260Z,15352.00
2019-06-20T10:26:37.628Z,15044.00
2019-06-20T10:27:37.192Z,13904.00
2019-06-20T10:28:37.513Z,12400.00
2019-06-20T10:29:37.954Z,10584.00
2019-06-20T10:30:38.349Z,8472.00
2019-06-20T10:31:38.795Z,6932.00
2019-06-20T10:32:39.214Z,5860.00
2019-06-20T10:33:39.621Z,5648.00
2019-06-20T10:34:40.060Z,6064.00
2019-06-20T10:35:40.486Z,6032.00
2019-06-20T10:36:40.976Z,5864.00
2019-06-20T10:37:41.313Z,5804.00
2019-06-20T10:38:41.715Z,5676.00
2019-06-20T10:39:44.495Z,5608.00
2019-06-20T10:40:44.733Z,5560.00
2019-06-20T10:41:43.574Z,5572.00
2019-06-20T10:42:44.556Z,5736.00
2019-06-20T10:43:44.264Z,5752.00
2019-06-20T10:44:45.703Z,5688.00
2019-06-20T10:45:45.718Z,5768.00
2019-06-20T10:46:45.863Z,5784.00
2019-06-20T10:47:46.886Z,5928.00
2019-06-20T10:48:45.999Z,6232.00
2019-06-20T10:49:47.711Z,6764.00
2019-06-20T10:50:47.721Z,7388.00
2019-06-20T10:51:47.639Z,8160.00
2019-06-20T10:52:48.043Z,9008.00
2019-06-20T10:53:49.187Z,10796.00
2019-06-20T10:54:49.286Z,12264.00
2019-06-20T10:55:49.047Z,13396.00
2019-06-20T10:56:49.326Z,15112.00
2019-06-20T10:57:50.015Z,16896.00
2019-06-20T10:58:50.690Z,18368.00
2019-06-20T10:59:50.895Z,19392.00
2019-06-20T11:00:51.301Z,20256.00
2019-06-20T11:01:51.415Z,20544.00
2019-06-20T11:02:51.839Z,20512.00
2019-06-20T11:03:52.228Z,20288.00
2019-06-20T11:04:52.679Z,19872.00
2019-06-20T11:05:53.078Z,19552.00
2019-06-20T11:06:53.542Z,19232.00
2019-06-20T11:07:53.943Z,18656.00
2019-06-20T11:08:54.378Z,17920.00
2019-06-20T11:09:54.741Z,16504.00
2019-06-20T11:10:55.163Z,15280.00
2019-06-20T11:11:55.595Z,14296.00
2019-06-20T11:12:56.435Z,12420.00
2019-06-20T11:13:56.420Z,10644.00
2019-06-20T11:14:56.857Z,9296.00
2019-06-20T11:15:57.238Z,8240.00
2019-06-20T11:16:57.753Z,7984.00
2019-06-20T11:17:58.175Z,8076.00
2019-06-20T11:18:58.523Z,8080.00
2019-06-20T11:19:58.951Z,8356.00
2019-06-20T11:20:59.338Z,8524.00
2019-06-20T11:21:59.811Z,8588.00
2019-06-20T11:23:00.239Z,10184.00
2019-06-20T11:24:00.630Z,12148.00
2019-06-20T11:25:01.059Z,12136.00
2019-06-20T11:26:01.593Z,11100.00
2019-06-20T11:27:01.928Z,10184.00
2019-06-20T11:28:02.349Z,9424.00
2019-06-20T11:29:02.775Z,9052.00
2019-06-20T11:30:03.226Z,8780.00
2019-06-20T11:31:03.603Z,9116.00
2019-06-20T11:32:04.008Z,9320.00
2019-06-20T11:33:04.436Z,9088.00
2019-06-20T11:34:04.980Z,9396.00
2019-06-20T11:35:05.285Z,9684.00
2019-06-20T11:36:05.709Z,10064.00
2019-06-20T11:37:06.153Z,10092.00
2019-06-20T11:38:06.576Z,10116.00
2019-06-20T11:39:06.975Z,10424.00
2019-06-20T11:40:07.398Z,10592.00
2019-06-20T11:41:07.875Z,9992.00
2019-06-20T11:42:08.336Z,9284.00
2019-06-20T11:43:08.660Z,8960.00
2019-06-20T11:44:09.077Z,8724.00
2019-06-20T11:45:09.512Z,8796.00
2019-06-20T11:46:09.930Z,8920.00
2019-06-20T11:47:10.351Z,9540.00
2019-06-20T11:48:10.771Z,9708.00
2019-06-20T11:49:11.155Z,10184.00
2019-06-20T11:50:11.630Z,10532.00
2019-06-20T11:51:12.009Z,10644.00
2019-06-20T11:52:12.438Z,10828.00
2019-06-20T11:53:12.857Z,11188.00
2019-06-20T11:54:13.248Z,11388.00
2019-06-20T11:55:13.658Z,11768.00
2019-06-20T11:56:14.110Z,12120.00
2019-06-20T11:57:14.537Z,12200.00
2019-06-20T11:58:15.007Z,12076.00
2019-06-20T11:59:15.401Z,11928.00
2019-06-20T12:00:15.773Z,11644.00
2019-06-20T12:01:16.214Z,11708.00
2019-06-20T12:02:16.637Z,12276.00
2019-06-20T12:03:17.079Z,12064.00
2019-06-20T12:04:17.444Z,12500.00
2019-06-20T12:05:17.877Z,14052.00
2019-06-20T12:06:18.327Z,15988.00
2019-06-20T12:07:18.852Z,17376.00
2019-06-20T12:08:19.161Z,17888.00
2019-06-20T12:09:19.556Z,18560.00
2019-06-20T12:10:19.993Z,18848.00
2019-06-20T12:11:20.396Z,18880.00
2019-06-20T12:12:20.860Z,18208.00
2019-06-20T12:13:21.257Z,17984.00
2019-06-20T12:14:21.691Z,17824.00
2019-06-20T12:15:22.212Z,17440.00
2019-06-20T12:16:22.490Z,17440.00
2019-06-20T12:17:22.928Z,17920.00
2019-06-20T12:18:23.393Z,18592.00
2019-06-20T12:19:23.747Z,19456.00
2019-06-20T12:20:24.162Z,20000.00
2019-06-20T12:21:24.604Z,20512.00
2019-06-20T12:22:25.003Z,20352.00
2019-06-20T12:23:25.542Z,20000.00
2019-06-20T12:24:25.835Z,18752.00
2019-06-20T12:25:26.255Z,17056.00
2019-06-20T12:26:26.690Z,15168.00